sensor_id;sensor_type;location;lat;lon;timestamp;P1;durP1;ratioP1;P2;durP2;ratioP2
75554;SDS011;66087;53.126;17.960;2023-03-23T14:32:51;3.80;;;1.40;;
75554;SDS011;66087;53.126;17.960;2023-03-23T14:35:23;5.20;;;1.80;;
75554;SDS011;66087;53.126;17.960;2023-03-23T14:37:54;6.10;;;2.40;;
75554;SDS011;66087;53.126;17.960;2023-03-23T14:40:21;5.60;;;2.30;;
75554;SDS011;66087;53.126;17.960;2023-03-23T14:42:49;6.30;;;2.70;;
75554;SDS011;66087;53.126;17.960;2023-03-23T14:45:18;6.60;;;2.50;;
75554;SDS011;66087;53.126;17.960;2023-03-23T14:47:48;9.30;;;3.20;;
75554;SDS011;66087;53.126;17.960;2023-03-23T14:50:30;16.10;;;7.30;;
75554;SDS011;66087;53.126;17.960;2023-03-23T14:53:11;8.30;;;2.80;;
75554;SDS011;66087;53.126;17.960;2023-03-23T14:55:46;12.90;;;4.30;;
75554;SDS011;66087;53.126;17.960;2023-03-23T14:58:15;29.10;;;12.20;;
75554;SDS011;66087;53.126;17.960;2023-03-23T15:00:46;7.90;;;3.50;;
75554;SDS011;66087;53.126;17.960;2023-03-23T15:03:24;6.80;;;1.80;;
75554;SDS011;66087;53.126;17.960;2023-03-23T15:05:55;4.60;;;1.80;;
75554;SDS011;66087;53.126;17.960;2023-03-23T15:08:25;4.80;;;1.70;;
75554;SDS011;66087;53.126;17.960;2023-03-23T15:11:01;4.20;;;1.70;;
75554;SDS011;66087;53.126;17.960;2023-03-23T15:13:35;4.00;;;1.60;;
75554;SDS011;66087;53.126;17.960;2023-03-23T15:16:03;3.90;;;1.40;;
75554;SDS011;66087;53.126;17.960;2023-03-23T15:18:34;3.50;;;1.30;;
75554;SDS011;66087;53.126;17.960;2023-03-23T15:21:12;4.90;;;1.90;;
75554;SDS011;66087;53.126;17.960;2023-03-23T15:23:50;6.60;;;2.40;;
75554;SDS011;66087;53.126;17.960;2023-03-23T15:26:22;7.20;;;3.30;;
75554;SDS011;66087;53.126;17.960;2023-03-23T15:29:00;5.30;;;1.90;;
75554;SDS011;66087;53.126;17.960;2023-03-23T15:31:39;3.80;;;1.50;;
75554;SDS011;66087;53.126;17.960;2023-03-23T15:34:11;4.50;;;1.70;;
75554;SDS011;66087;53.126;17.960;2023-03-23T15:36:41;4.60;;;1.60;;
75554;SDS011;66087;53.126;17.960;2023-03-23T15:39:11;5.40;;;1.60;;
75554;SDS011;66087;53.126;17.960;2023-03-23T15:41:47;6.20;;;2.30;;
75554;SDS011;66087;53.126;17.960;2023-03-23T15:44:24;6.10;;;2.00;;
75554;SDS011;66087;53.126;17.960;2023-03-23T15:47:01;9.40;;;2.70;;
75554;SDS011;66087;53.126;17.960;2023-03-23T15:49:31;10.90;;;3.60;;
75554;SDS011;66087;53.126;17.960;2023-03-23T15:51:57;10.80;;;3.70;;
75554;SDS011;66087;53.126;17.960;2023-03-23T15:54:24;7.50;;;2.60;;
75554;SDS011;66087;53.126;17.960;2023-03-23T15:56:57;8.70;;;2.60;;
75554;SDS011;66087;53.126;17.960;2023-03-23T15:59:24;9.10;;;3.20;;
75554;SDS011;66087;53.126;17.960;2023-03-23T16:01:50;11.50;;;3.90;;
75554;SDS011;66087;53.126;17.960;2023-03-23T16:04:17;26.60;;;9.30;;
75554;SDS011;66087;53.126;17.960;2023-03-23T16:06:45;16.80;;;7.10;;
75554;SDS011;66087;53.126;17.960;2023-03-23T16:09:15;8.70;;;3.70;;
75554;SDS011;66087;53.126;17.960;2023-03-23T16:11:44;8.90;;;3.70;;
75554;SDS011;66087;53.126;17.960;2023-03-23T16:14:11;7.60;;;3.00;;
75554;SDS011;66087;53.126;17.960;2023-03-23T16:16:40;6.20;;;2.40;;
75554;SDS011;66087;53.126;17.960;2023-03-23T16:19:11;18.50;;;8.80;;
75554;SDS011;66087;53.126;17.960;2023-03-23T16:21:39;7.70;;;3.40;;
75554;SDS011;66087;53.126;17.960;2023-03-23T16:24:07;11.60;;;5.50;;
75554;SDS011;66087;53.126;17.960;2023-03-23T16:26:35;14.40;;;7.70;;
75554;SDS011;66087;53.126;17.960;2023-03-23T16:29:04;14.30;;;6.30;;
75554;SDS011;66087;53.126;17.960;2023-03-23T16:31:36;12.70;;;5.00;;
75554;SDS011;66087;53.126;17.960;2023-03-23T16:34:03;26.10;;;11.00;;
75554;SDS011;66087;53.126;17.960;2023-03-23T16:36:29;9.40;;;4.20;;
75554;SDS011;66087;53.126;17.960;2023-03-23T16:38:56;10.90;;;4.10;;
75554;SDS011;66087;53.126;17.960;2023-03-23T16:41:23;11.40;;;4.70;;
75554;SDS011;66087;53.126;17.960;2023-03-23T16:43:49;7.20;;;3.50;;
75554;SDS011;66087;53.126;17.960;2023-03-23T16:46:16;8.70;;;4.90;;
75554;SDS011;66087;53.126;17.960;2023-03-23T16:48:43;14.90;;;6.80;;
75554;SDS011;66087;53.126;17.960;2023-03-23T16:51:09;12.30;;;5.20;;
75554;SDS011;66087;53.126;17.960;2023-03-23T16:53:36;11.60;;;6.20;;
75554;SDS011;66087;53.126;17.960;2023-03-23T16:56:03;7.50;;;3.90;;
75554;SDS011;66087;53.126;17.960;2023-03-23T16:58:30;11.00;;;4.80;;
75554;SDS011;66087;53.126;17.960;2023-03-23T17:00:56;16.80;;;7.80;;
75554;SDS011;66087;53.126;17.960;2023-03-23T17:03:23;19.50;;;9.50;;
75554;SDS011;66087;53.126;17.960;2023-03-23T17:05:50;22.70;;;11.70;;
75554;SDS011;66087;53.126;17.960;2023-03-23T17:08:17;22.70;;;12.30;;
75554;SDS011;66087;53.126;17.960;2023-03-23T17:10:46;31.90;;;14.40;;
75554;SDS011;66087;53.126;17.960;2023-03-23T17:13:13;49.30;;;20.90;;
75554;SDS011;66087;53.126;17.960;2023-03-23T17:15:41;25.40;;;14.10;;
75554;SDS011;66087;53.126;17.960;2023-03-23T17:18:09;20.30;;;12.30;;
75554;SDS011;66087;53.126;17.960;2023-03-23T17:20:36;20.50;;;12.50;;
75554;SDS011;66087;53.126;17.960;2023-03-23T17:23:03;17.90;;;9.50;;
75554;SDS011;66087;53.126;17.960;2023-03-23T17:25:30;16.40;;;9.10;;
75554;SDS011;66087;53.126;17.960;2023-03-23T17:27:57;15.80;;;9.10;;
75554;SDS011;66087;53.126;17.960;2023-03-23T17:30:24;18.50;;;10.00;;
75554;SDS011;66087;53.126;17.960;2023-03-23T17:32:52;12.50;;;6.80;;
75554;SDS011;66087;53.126;17.960;2023-03-23T17:35:19;10.60;;;4.70;;
75554;SDS011;66087;53.126;17.960;2023-03-23T17:37:46;11.60;;;5.80;;
75554;SDS011;66087;53.126;17.960;2023-03-23T17:40:13;13.90;;;6.40;;
75554;SDS011;66087;53.126;17.960;2023-03-23T17:42:40;14.30;;;7.10;;
75554;SDS011;66087;53.126;17.960;2023-03-23T17:45:07;12.60;;;5.60;;
75554;SDS011;66087;53.126;17.960;2023-03-23T17:47:35;12.30;;;4.70;;
75554;SDS011;66087;53.126;17.960;2023-03-23T17:50:02;13.50;;;6.60;;
75554;SDS011;66087;53.126;17.960;2023-03-23T17:52:29;12.10;;;6.00;;
75554;SDS011;66087;53.126;17.960;2023-03-23T17:54:56;8.90;;;5.00;;
75554;SDS011;66087;53.126;17.960;2023-03-23T17:57:23;9.70;;;4.70;;
75554;SDS011;66087;53.126;17.960;2023-03-23T17:59:49;9.20;;;4.10;;
75554;SDS011;66087;53.126;17.960;2023-03-23T18:02:16;11.90;;;5.30;;
75554;SDS011;66087;53.126;17.960;2023-03-23T18:04:44;9.70;;;4.60;;
75554;SDS011;66087;53.126;17.960;2023-03-23T18:07:12;11.50;;;5.60;;
75554;SDS011;66087;53.126;17.960;2023-03-23T18:09:39;9.40;;;4.70;;
75554;SDS011;66087;53.126;17.960;2023-03-23T18:12:06;8.40;;;4.10;;
75554;SDS011;66087;53.126;17.960;2023-03-23T18:14:33;10.20;;;4.80;;
75554;SDS011;66087;53.126;17.960;2023-03-23T18:17:00;12.50;;;5.30;;
75554;SDS011;66087;53.126;17.960;2023-03-23T18:19:27;12.20;;;5.60;;
75554;SDS011;66087;53.126;17.960;2023-03-23T18:21:54;12.70;;;6.40;;
75554;SDS011;66087;53.126;17.960;2023-03-23T18:24:21;10.90;;;6.20;;
75554;SDS011;66087;53.126;17.960;2023-03-23T18:26:49;11.60;;;6.60;;
75554;SDS011;66087;53.126;17.960;2023-03-23T18:29:16;10.10;;;4.90;;
75554;SDS011;66087;53.126;17.960;2023-03-23T18:31:43;10.10;;;5.40;;
75554;SDS011;66087;53.126;17.960;2023-03-23T18:34:10;9.00;;;5.00;;
75554;SDS011;66087;53.126;17.960;2023-03-23T18:36:36;9.60;;;4.90;;
75554;SDS011;66087;53.126;17.960;2023-03-23T18:39:03;9.60;;;5.00;;
75554;SDS011;66087;53.126;17.960;2023-03-23T18:41:31;10.70;;;4.50;;
75554;SDS011;66087;53.126;17.960;2023-03-23T18:43:57;10.70;;;5.30;;
75554;SDS011;66087;53.126;17.960;2023-03-23T18:46:24;12.10;;;5.70;;
75554;SDS011;66087;53.126;17.960;2023-03-23T18:48:51;10.30;;;5.20;;
75554;SDS011;66087;53.126;17.960;2023-03-23T18:51:18;12.40;;;6.10;;
75554;SDS011;66087;53.126;17.960;2023-03-23T18:53:45;13.00;;;6.70;;
75554;SDS011;66087;53.126;17.960;2023-03-23T18:56:13;12.80;;;7.00;;
75554;SDS011;66087;53.126;17.960;2023-03-23T18:58:42;15.20;;;7.40;;
75554;SDS011;66087;53.126;17.960;2023-03-23T19:01:10;13.90;;;7.40;;
75554;SDS011;66087;53.126;17.960;2023-03-23T19:03:39;10.80;;;5.30;;
75554;SDS011;66087;53.126;17.960;2023-03-23T19:06:08;12.20;;;4.80;;
75554;SDS011;66087;53.126;17.960;2023-03-23T19:08:44;9.80;;;4.60;;
75554;SDS011;66087;53.126;17.960;2023-03-23T19:11:11;9.50;;;3.80;;
75554;SDS011;66087;53.126;17.960;2023-03-23T19:13:39;9.10;;;3.60;;
75554;SDS011;66087;53.126;17.960;2023-03-23T19:16:06;8.70;;;2.90;;
75554;SDS011;66087;53.126;17.960;2023-03-23T19:18:33;7.60;;;3.30;;
75554;SDS011;66087;53.126;17.960;2023-03-23T19:21:00;9.70;;;3.30;;
75554;SDS011;66087;53.126;17.960;2023-03-23T19:23:27;6.90;;;2.70;;
75554;SDS011;66087;53.126;17.960;2023-03-23T19:25:54;6.20;;;2.40;;
75554;SDS011;66087;53.126;17.960;2023-03-23T19:28:21;7.20;;;2.80;;
75554;SDS011;66087;53.126;17.960;2023-03-23T19:30:52;9.20;;;4.10;;
75554;SDS011;66087;53.126;17.960;2023-03-23T19:33:20;9.20;;;3.60;;
75554;SDS011;66087;53.126;17.960;2023-03-23T19:35:48;9.00;;;4.60;;
75554;SDS011;66087;53.126;17.960;2023-03-23T19:38:18;7.80;;;3.40;;
75554;SDS011;66087;53.126;17.960;2023-03-23T19:40:48;10.30;;;4.10;;
75554;SDS011;66087;53.126;17.960;2023-03-23T19:43:18;8.40;;;3.50;;
75554;SDS011;66087;53.126;17.960;2023-03-23T19:45:46;11.80;;;4.20;;
75554;SDS011;66087;53.126;17.960;2023-03-23T19:48:12;12.20;;;4.30;;
75554;SDS011;66087;53.126;17.960;2023-03-23T19:50:39;16.00;;;6.10;;
75554;SDS011;66087;53.126;17.960;2023-03-23T19:53:06;20.80;;;7.60;;
75554;SDS011;66087;53.126;17.960;2023-03-23T19:55:33;14.80;;;7.10;;
75554;SDS011;66087;53.126;17.960;2023-03-23T19:58:00;16.70;;;7.80;;
75554;SDS011;66087;53.126;17.960;2023-03-23T20:00:27;17.20;;;8.70;;
75554;SDS011;66087;53.126;17.960;2023-03-23T20:02:56;19.40;;;9.80;;
75554;SDS011;66087;53.126;17.960;2023-03-23T20:05:23;17.50;;;8.90;;
75554;SDS011;66087;53.126;17.960;2023-03-23T20:07:50;19.60;;;9.50;;
75554;SDS011;66087;53.126;17.960;2023-03-23T20:10:16;22.20;;;12.70;;
75554;SDS011;66087;53.126;17.960;2023-03-23T20:12:43;17.90;;;9.10;;
75554;SDS011;66087;53.126;17.960;2023-03-23T20:15:10;10.40;;;3.90;;
75554;SDS011;66087;53.126;17.960;2023-03-23T20:17:37;8.70;;;3.90;;
75554;SDS011;66087;53.126;17.960;2023-03-23T20:20:04;13.80;;;6.90;;
75554;SDS011;66087;53.126;17.960;2023-03-23T20:22:33;19.60;;;9.90;;
75554;SDS011;66087;53.126;17.960;2023-03-23T20:25:01;17.00;;;8.70;;
75554;SDS011;66087;53.126;17.960;2023-03-23T20:27:28;30.50;;;17.60;;
75554;SDS011;66087;53.126;17.960;2023-03-23T20:29:55;27.70;;;16.50;;
75554;SDS011;66087;53.126;17.960;2023-03-23T20:32:21;25.50;;;13.80;;
75554;SDS011;66087;53.126;17.960;2023-03-23T20:34:48;27.70;;;16.20;;
75554;SDS011;66087;53.126;17.960;2023-03-23T20:37:16;14.90;;;8.30;;
75554;SDS011;66087;53.126;17.960;2023-03-23T20:39:46;17.90;;;9.50;;
75554;SDS011;66087;53.126;17.960;2023-03-23T20:42:14;11.00;;;4.70;;
75554;SDS011;66087;53.126;17.960;2023-03-23T20:44:42;12.20;;;5.30;;
75554;SDS011;66087;53.126;17.960;2023-03-23T20:47:09;11.60;;;5.20;;
75554;SDS011;66087;53.126;17.960;2023-03-23T20:49:36;12.80;;;6.60;;
75554;SDS011;66087;53.126;17.960;2023-03-23T20:52:04;14.90;;;7.60;;
75554;SDS011;66087;53.126;17.960;2023-03-23T20:54:33;23.30;;;11.50;;
75554;SDS011;66087;53.126;17.960;2023-03-23T20:57:00;33.70;;;15.40;;
75554;SDS011;66087;53.126;17.960;2023-03-23T20:59:27;25.40;;;11.80;;
75554;SDS011;66087;53.126;17.960;2023-03-23T21:01:54;21.20;;;11.40;;
75554;SDS011;66087;53.126;17.960;2023-03-23T21:04:22;14.40;;;6.10;;
75554;SDS011;66087;53.126;17.960;2023-03-23T21:06:52;12.30;;;6.00;;
75554;SDS011;66087;53.126;17.960;2023-03-23T21:09:20;13.50;;;7.40;;
75554;SDS011;66087;53.126;17.960;2023-03-23T21:11:47;12.40;;;6.50;;
75554;SDS011;66087;53.126;17.960;2023-03-23T21:14:14;11.00;;;5.30;;
75554;SDS011;66087;53.126;17.960;2023-03-23T21:16:41;34.50;;;24.30;;
75554;SDS011;66087;53.126;17.960;2023-03-23T21:19:09;25.50;;;16.20;;
75554;SDS011;66087;53.126;17.960;2023-03-23T21:21:37;16.80;;;8.80;;
75554;SDS011;66087;53.126;17.960;2023-03-23T21:24:08;21.20;;;10.40;;
75554;SDS011;66087;53.126;17.960;2023-03-23T21:26:37;25.00;;;12.30;;
75554;SDS011;66087;53.126;17.960;2023-03-23T21:29:05;33.10;;;14.50;;
75554;SDS011;66087;53.126;17.960;2023-03-23T21:31:37;19.90;;;10.90;;
75554;SDS011;66087;53.126;17.960;2023-03-23T21:34:03;21.40;;;11.50;;
75554;SDS011;66087;53.126;17.960;2023-03-23T21:36:31;20.80;;;12.20;;
75554;SDS011;66087;53.126;17.960;2023-03-23T21:38:58;12.00;;;6.00;;
75554;SDS011;66087;53.126;17.960;2023-03-23T21:41:27;18.70;;;10.50;;
75554;SDS011;66087;53.126;17.960;2023-03-23T21:43:55;50.90;;;24.80;;
75554;SDS011;66087;53.126;17.960;2023-03-23T21:46:23;26.40;;;12.70;;
75554;SDS011;66087;53.126;17.960;2023-03-23T21:48:49;21.60;;;10.70;;
75554;SDS011;66087;53.126;17.960;2023-03-23T21:51:17;20.20;;;10.80;;
75554;SDS011;66087;53.126;17.960;2023-03-23T21:53:46;29.50;;;13.20;;
75554;SDS011;66087;53.126;17.960;2023-03-23T21:56:13;20.20;;;9.20;;
75554;SDS011;66087;53.126;17.960;2023-03-23T21:58:41;17.80;;;8.10;;
75554;SDS011;66087;53.126;17.960;2023-03-23T22:01:08;19.70;;;9.40;;
75554;SDS011;66087;53.126;17.960;2023-03-23T22:03:36;21.10;;;8.90;;
75554;SDS011;66087;53.126;17.960;2023-03-23T22:06:05;19.40;;;9.60;;
75554;SDS011;66087;53.126;17.960;2023-03-23T22:08:36;19.30;;;9.70;;
75554;SDS011;66087;53.126;17.960;2023-03-23T22:11:06;20.50;;;9.20;;
75554;SDS011;66087;53.126;17.960;2023-03-23T22:13:35;18.60;;;9.10;;
75554;SDS011;66087;53.126;17.960;2023-03-23T22:16:04;16.60;;;8.60;;
75554;SDS011;66087;53.126;17.960;2023-03-23T22:18:33;17.00;;;9.00;;
75554;SDS011;66087;53.126;17.960;2023-03-23T22:21:00;53.60;;;22.70;;
75554;SDS011;66087;53.126;17.960;2023-03-23T22:23:27;34.10;;;14.70;;
75554;SDS011;66087;53.126;17.960;2023-03-23T22:25:54;13.30;;;6.90;;
75554;SDS011;66087;53.126;17.960;2023-03-23T22:28:22;11.70;;;5.90;;
75554;SDS011;66087;53.126;17.960;2023-03-23T22:30:52;11.40;;;4.20;;
75554;SDS011;66087;53.126;17.960;2023-03-23T22:33:24;15.90;;;7.80;;
75554;SDS011;66087;53.126;17.960;2023-03-23T22:35:51;15.00;;;7.60;;
75554;SDS011;66087;53.126;17.960;2023-03-23T22:38:17;8.50;;;4.90;;
75554;SDS011;66087;53.126;17.960;2023-03-23T22:40:45;11.50;;;4.90;;
75554;SDS011;66087;53.126;17.960;2023-03-23T22:43:19;11.50;;;5.50;;
75554;SDS011;66087;53.126;17.960;2023-03-23T22:45:48;11.70;;;5.40;;
75554;SDS011;66087;53.126;17.960;2023-03-23T22:48:17;10.00;;;4.00;;
75554;SDS011;66087;53.126;17.960;2023-03-23T22:50:45;9.20;;;3.90;;
75554;SDS011;66087;53.126;17.960;2023-03-23T22:53:13;9.10;;;4.20;;
75554;SDS011;66087;53.126;17.960;2023-03-23T22:55:42;10.70;;;4.80;;
75554;SDS011;66087;53.126;17.960;2023-03-23T22:58:11;10.20;;;3.90;;
75554;SDS011;66087;53.126;17.960;2023-03-23T23:00:38;12.30;;;7.20;;
75554;SDS011;66087;53.126;17.960;2023-03-23T23:03:06;13.70;;;7.20;;
75554;SDS011;66087;53.126;17.960;2023-03-23T23:05:33;9.60;;;5.10;;
75554;SDS011;66087;53.126;17.960;2023-03-23T23:08:00;10.70;;;6.00;;
75554;SDS011;66087;53.126;17.960;2023-03-23T23:10:28;14.40;;;6.70;;
75554;SDS011;66087;53.126;17.960;2023-03-23T23:12:54;12.40;;;5.80;;
75554;SDS011;66087;53.126;17.960;2023-03-23T23:15:21;13.40;;;6.50;;
75554;SDS011;66087;53.126;17.960;2023-03-23T23:17:48;14.80;;;7.50;;
75554;SDS011;66087;53.126;17.960;2023-03-23T23:20:14;11.60;;;6.40;;
75554;SDS011;66087;53.126;17.960;2023-03-23T23:22:42;11.90;;;5.40;;
75554;SDS011;66087;53.126;17.960;2023-03-23T23:25:08;13.20;;;6.20;;
75554;SDS011;66087;53.126;17.960;2023-03-23T23:27:36;11.90;;;6.50;;
75554;SDS011;66087;53.126;17.960;2023-03-23T23:30:03;13.00;;;6.60;;
75554;SDS011;66087;53.126;17.960;2023-03-23T23:32:31;9.60;;;5.30;;
75554;SDS011;66087;53.126;17.960;2023-03-23T23:34:58;13.40;;;7.00;;
75554;SDS011;66087;53.126;17.960;2023-03-23T23:37:25;12.60;;;6.30;;
75554;SDS011;66087;53.126;17.960;2023-03-23T23:39:52;13.70;;;6.90;;
75554;SDS011;66087;53.126;17.960;2023-03-23T23:42:18;11.90;;;6.20;;
75554;SDS011;66087;53.126;17.960;2023-03-23T23:44:45;14.00;;;7.60;;
75554;SDS011;66087;53.126;17.960;2023-03-23T23:47:12;10.60;;;5.10;;
75554;SDS011;66087;53.126;17.960;2023-03-23T23:49:39;12.10;;;6.30;;
75554;SDS011;66087;53.126;17.960;2023-03-23T23:52:06;10.70;;;5.30;;
75554;SDS011;66087;53.126;17.960;2023-03-23T23:54:34;12.50;;;6.20;;
75554;SDS011;66087;53.126;17.960;2023-03-23T23:57:03;11.60;;;6.10;;
75554;SDS011;66087;53.126;17.960;2023-03-23T23:59:30;11.90;;;6.10;;
